sensor_id;sensor_type;location;lat;lon;timestamp;pressure;altitude;pressure_sealevel;temperature;humidity
11672;BME280;5892;43.412;24.612;2023-02-25T00:02:03;99250.59;;;4.85;100.00
11672;BME280;5892;43.412;24.612;2023-02-25T00:04:30;99284.84;;;5.27;100.00
11672;BME280;5892;43.412;24.612;2023-02-25T00:06:58;99306.00;;;5.43;100.00
11672;BME280;5892;43.412;24.612;2023-02-25T00:09:27;99320.59;;;5.47;100.00
11672;BME280;5892;43.412;24.612;2023-02-25T00:11:54;99303.75;;;5.32;100.00
11672;BME280;5892;43.412;24.612;2023-02-25T00:14:21;99300.44;;;5.35;100.00
11672;BME280;5892;43.412;24.612;2023-02-25T00:16:48;99304.66;;;5.27;100.00
11672;BME280;5892;43.412;24.612;2023-02-25T00:19:15;99225.72;;;4.78;100.00
11672;BME280;5892;43.412;24.612;2023-02-25T00:21:42;99296.53;;;5.27;100.00
11672;BME280;5892;43.412;24.612;2023-02-25T00:24:09;99276.75;;;5.08;100.00
11672;BME280;5892;43.412;24.612;2023-02-25T00:26:38;99289.94;;;5.15;100.00
11672;BME280;5892;43.412;24.612;2023-02-25T00:29:06;99286.03;;;5.07;100.00
11672;BME280;5892;43.412;24.612;2023-02-25T00:31:33;99300.16;;;4.90;100.00
11672;BME280;5892;43.412;24.612;2023-02-25T00:34:00;99283.50;;;4.97;100.00
11672;BME280;5892;43.412;24.612;2023-02-25T00:36:32;99274.66;;;5.05;100.00
11672;BME280;5892;43.412;24.612;2023-02-25T00:38:59;99249.59;;;4.81;100.00
11672;BME280;5892;43.412;24.612;2023-02-25T00:41:27;99272.03;;;5.00;100.00
11672;BME280;5892;43.412;24.612;2023-02-25T00:43:59;99182.03;;;4.33;100.00
11672;BME280;5892;43.412;24.612;2023-02-25T00:46:27;99272.31;;;4.85;100.00
11672;BME280;5892;43.412;24.612;2023-02-25T00:48:55;99193.94;;;4.18;100.00
11672;BME280;5892;43.412;24.612;2023-02-25T00:51:24;99255.84;;;4.62;100.00
11672;BME280;5892;43.412;24.612;2023-02-25T00:53:51;99250.25;;;4.73;100.00
11672;BME280;5892;43.412;24.612;2023-02-25T00:56:18;99167.47;;;4.29;100.00
11672;BME280;5892;43.412;24.612;2023-02-25T00:58:49;99214.16;;;4.58;100.00
11672;BME280;5892;43.412;24.612;2023-02-25T01:01:22;99192.41;;;4.45;100.00
11672;BME280;5892;43.412;24.612;2023-02-25T01:03:50;99239.28;;;4.64;100.00
11672;BME280;5892;43.412;24.612;2023-02-25T01:06:18;99200.94;;;4.38;100.00
11672;BME280;5892;43.412;24.612;2023-02-25T01:08:45;99155.34;;;4.08;100.00
11672;BME280;5892;43.412;24.612;2023-02-25T01:11:14;99206.56;;;4.42;100.00
11672;BME280;5892;43.412;24.612;2023-02-25T01:13:43;99222.75;;;4.47;100.00
11672;BME280;5892;43.412;24.612;2023-02-25T01:16:12;99220.22;;;4.50;100.00
11672;BME280;5892;43.412;24.612;2023-02-25T01:18:41;99218.47;;;4.59;100.00
11672;BME280;5892;43.412;24.612;2023-02-25T01:21:14;99218.72;;;4.44;100.00
11672;BME280;5892;43.412;24.612;2023-02-25T01:23:43;99153.13;;;4.10;100.00
11672;BME280;5892;43.412;24.612;2023-02-25T01:26:10;99136.94;;;4.05;100.00
11672;BME280;5892;43.412;24.612;2023-02-25T01:28:37;99144.25;;;4.04;100.00
11672;BME280;5892;43.412;24.612;2023-02-25T01:31:04;99201.81;;;4.34;100.00
11672;BME280;5892;43.412;24.612;2023-02-25T01:33:33;99181.75;;;4.16;100.00
11672;BME280;5892;43.412;24.612;2023-02-25T01:36:06;99209.41;;;4.18;100.00
11672;BME280;5892;43.412;24.612;2023-02-25T01:38:33;99188.72;;;4.22;100.00
11672;BME280;5892;43.412;24.612;2023-02-25T01:41:00;99188.75;;;4.36;100.00
11672;BME280;5892;43.412;24.612;2023-02-25T01:43:29;99150.56;;;4.18;100.00
11672;BME280;5892;43.412;24.612;2023-02-25T01:45:56;99152.75;;;4.16;100.00
11672;BME280;5892;43.412;24.612;2023-02-25T01:48:26;99182.03;;;4.14;100.00
11672;BME280;5892;43.412;24.612;2023-02-25T01:50:59;99193.13;;;4.18;100.00
11672;BME280;5892;43.412;24.612;2023-02-25T01:53:33;99102.06;;;3.47;100.00
11672;BME280;5892;43.412;24.612;2023-02-25T01:56:01;99181.84;;;4.11;100.00
11672;BME280;5892;43.412;24.612;2023-02-25T01:58:31;99185.34;;;3.93;100.00
11672;BME280;5892;43.412;24.612;2023-02-25T02:00:59;99190.78;;;4.11;100.00
11672;BME280;5892;43.412;24.612;2023-02-25T02:03:32;99093.94;;;3.47;100.00
11672;BME280;5892;43.412;24.612;2023-02-25T02:06:06;99188.03;;;3.98;100.00
11672;BME280;5892;43.412;24.612;2023-02-25T02:08:36;99186.00;;;4.03;100.00
11672;BME280;5892;43.412;24.612;2023-02-25T02:11:03;99153.16;;;3.72;100.00
11672;BME280;5892;43.412;24.612;2023-02-25T02:13:33;99180.38;;;4.00;100.00
11672;BME280;5892;43.412;24.612;2023-02-25T02:16:13;99182.53;;;4.03;100.00
11672;BME280;5892;43.412;24.612;2023-02-25T02:18:48;99171.16;;;4.01;100.00
11672;BME280;5892;43.412;24.612;2023-02-25T02:21:41;99158.84;;;3.90;100.00
11672;BME280;5892;43.412;24.612;2023-02-25T02:27:09;99114.66;;;3.75;100.00
11672;BME280;5892;43.412;24.612;2023-02-25T02:30:06;99157.81;;;4.04;100.00
11672;BME280;5892;43.412;24.612;2023-02-25T02:32:42;99159.31;;;3.97;100.00
11672;BME280;5892;43.412;24.612;2023-02-25T02:35:19;99052.69;;;3.18;100.00
11672;BME280;5892;43.412;24.612;2023-02-25T02:37:56;99131.47;;;3.72;100.00
11672;BME280;5892;43.412;24.612;2023-02-25T02:40:39;99145.75;;;3.97;100.00
11672;BME280;5892;43.412;24.612;2023-02-25T02:43:14;99132.78;;;3.94;100.00
11672;BME280;5892;43.412;24.612;2023-02-25T02:45:48;99100.28;;;3.75;100.00
11672;BME280;5892;43.412;24.612;2023-02-25T02:48:23;99130.66;;;3.91;100.00
11672;BME280;5892;43.412;24.612;2023-02-25T02:50:55;99127.88;;;3.96;100.00
11672;BME280;5892;43.412;24.612;2023-02-25T02:53:26;99125.13;;;3.82;100.00
11672;BME280;5892;43.412;24.612;2023-02-25T02:55:56;99129.75;;;3.81;100.00
11672;BME280;5892;43.412;24.612;2023-02-25T02:58:28;99130.47;;;3.68;100.00
11672;BME280;5892;43.412;24.612;2023-02-25T03:01:01;99132.06;;;3.69;100.00
11672;BME280;5892;43.412;24.612;2023-02-25T03:03:35;99121.69;;;3.76;100.00
11672;BME280;5892;43.412;24.612;2023-02-25T03:06:08;99100.81;;;3.58;100.00
11672;BME280;5892;43.412;24.612;2023-02-25T03:08:41;99039.22;;;3.13;100.00
11672;BME280;5892;43.412;24.612;2023-02-25T03:11:11;99097.97;;;3.68;100.00
11672;BME280;5892;43.412;24.612;2023-02-25T03:13:38;99074.13;;;3.33;100.00
11672;BME280;5892;43.412;24.612;2023-02-25T03:16:09;99109.66;;;3.82;100.00
11672;BME280;5892;43.412;24.612;2023-02-25T03:18:42;99122.69;;;3.80;100.00
11672;BME280;5892;43.412;24.612;2023-02-25T03:21:12;99050.78;;;3.37;100.00
11672;BME280;5892;43.412;24.612;2023-02-25T03:23:41;99039.88;;;3.23;100.00
11672;BME280;5892;43.412;24.612;2023-02-25T03:26:12;99083.63;;;3.49;100.00
11672;BME280;5892;43.412;24.612;2023-02-25T03:28:44;99099.13;;;3.62;100.00
11672;BME280;5892;43.412;24.612;2023-02-25T03:31:16;99099.50;;;3.74;100.00
11672;BME280;5892;43.412;24.612;2023-02-25T03:33:51;99064.16;;;3.47;100.00
11672;BME280;5892;43.412;24.612;2023-02-25T03:36:23;99084.44;;;3.50;100.00
11672;BME280;5892;43.412;24.612;2023-02-25T03:38:55;99098.47;;;3.52;100.00
11672;BME280;5892;43.412;24.612;2023-02-25T03:41:33;99064.31;;;3.37;100.00
11672;BME280;5892;43.412;24.612;2023-02-25T03:44:05;99055.66;;;3.35;100.00
11672;BME280;5892;43.412;24.612;2023-02-25T03:46:34;99017.66;;;3.08;100.00
11672;BME280;5892;43.412;24.612;2023-02-25T03:49:05;99022.31;;;3.21;100.00
11672;BME280;5892;43.412;24.612;2023-02-25T03:51:35;99096.50;;;3.57;100.00
11672;BME280;5892;43.412;24.612;2023-02-25T03:54:04;99084.56;;;3.58;100.00
11672;BME280;5892;43.412;24.612;2023-02-25T03:56:40;99094.66;;;3.53;100.00
11672;BME280;5892;43.412;24.612;2023-02-25T03:59:07;99079.19;;;3.39;100.00
11672;BME280;5892;43.412;24.612;2023-02-25T04:01:34;98979.53;;;2.67;100.00
11672;BME280;5892;43.412;24.612;2023-02-25T04:04:05;99095.63;;;3.43;100.00
11672;BME280;5892;43.412;24.612;2023-02-25T04:06:32;99098.06;;;3.45;100.00
11672;BME280;5892;43.412;24.612;2023-02-25T04:09:00;99052.59;;;3.23;100.00
11672;BME280;5892;43.412;24.612;2023-02-25T04:11:28;99082.81;;;3.49;100.00
11672;BME280;5892;43.412;24.612;2023-02-25T04:13:55;99060.59;;;3.33;100.00
11672;BME280;5892;43.412;24.612;2023-02-25T04:16:22;99069.34;;;3.44;100.00
11672;BME280;5892;43.412;24.612;2023-02-25T04:18:49;98989.84;;;2.83;100.00
11672;BME280;5892;43.412;24.612;2023-02-25T04:21:27;99073.97;;;3.43;100.00
11672;BME280;5892;43.412;24.612;2023-02-25T04:23:55;99027.56;;;3.31;100.00
11672;BME280;5892;43.412;24.612;2023-02-25T04:26:22;99027.38;;;3.27;100.00
11672;BME280;5892;43.412;24.612;2023-02-25T04:28:50;99056.84;;;3.29;100.00
11672;BME280;5892;43.412;24.612;2023-02-25T04:31:17;99060.13;;;3.07;100.00
11672;BME280;5892;43.412;24.612;2023-02-25T04:33:44;98912.53;;;2.21;100.00
11672;BME280;5892;43.412;24.612;2023-02-25T04:36:26;99054.22;;;3.24;100.00
11672;BME280;5892;43.412;24.612;2023-02-25T04:38:55;99029.19;;;2.94;100.00
11672;BME280;5892;43.412;24.612;2023-02-25T04:41:23;99056.91;;;3.05;100.00
11672;BME280;5892;43.412;24.612;2023-02-25T04:43:50;99045.13;;;2.96;100.00
11672;BME280;5892;43.412;24.612;2023-02-25T04:46:17;98985.28;;;2.60;100.00
11672;BME280;5892;43.412;24.612;2023-02-25T04:48:44;98964.94;;;2.44;100.00
11672;BME280;5892;43.412;24.612;2023-02-25T04:51:11;99059.47;;;2.96;100.00
11672;BME280;5892;43.412;24.612;2023-02-25T04:53:41;98997.88;;;2.70;100.00
11672;BME280;5892;43.412;24.612;2023-02-25T04:56:09;99046.31;;;3.09;100.00
11672;BME280;5892;43.412;24.612;2023-02-25T04:58:36;99045.66;;;2.98;100.00
11672;BME280;5892;43.412;24.612;2023-02-25T05:01:06;99028.09;;;2.95;100.00
11672;BME280;5892;43.412;24.612;2023-02-25T05:03:35;99067.78;;;2.81;100.00
11672;BME280;5892;43.412;24.612;2023-02-25T05:06:03;98957.47;;;2.36;100.00
11672;BME280;5892;43.412;24.612;2023-02-25T05:08:31;98920.69;;;2.16;100.00
11672;BME280;5892;43.412;24.612;2023-02-25T05:11:01;99022.50;;;2.68;100.00
11672;BME280;5892;43.412;24.612;2023-02-25T05:13:28;99038.78;;;3.06;100.00
11672;BME280;5892;43.412;24.612;2023-02-25T05:16:03;99040.38;;;3.07;100.00
11672;BME280;5892;43.412;24.612;2023-02-25T05:18:31;99009.16;;;2.95;100.00
11672;BME280;5892;43.412;24.612;2023-02-25T05:21:00;99038.78;;;3.24;100.00
11672;BME280;5892;43.412;24.612;2023-02-25T05:23:28;99021.81;;;3.19;100.00
11672;BME280;5892;43.412;24.612;2023-02-25T05:25:55;98987.06;;;2.88;100.00
11672;BME280;5892;43.412;24.612;2023-02-25T05:28:28;99045.88;;;3.39;100.00
11672;BME280;5892;43.412;24.612;2023-02-25T05:30:55;99029.63;;;3.39;100.00
11672;BME280;5892;43.412;24.612;2023-02-25T05:33:22;99042.94;;;3.54;100.00
11672;BME280;5892;43.412;24.612;2023-02-25T05:35:50;99037.91;;;3.61;100.00
11672;BME280;5892;43.412;24.612;2023-02-25T05:38:16;99014.06;;;3.63;100.00
11672;BME280;5892;43.412;24.612;2023-02-25T05:40:44;99031.94;;;3.97;100.00
11672;BME280;5892;43.412;24.612;2023-02-25T05:43:10;99023.38;;;3.90;100.00
11672;BME280;5892;43.412;24.612;2023-02-25T05:45:39;99053.72;;;4.05;100.00
11672;BME280;5892;43.412;24.612;2023-02-25T05:48:06;98999.88;;;3.85;100.00
11672;BME280;5892;43.412;24.612;2023-02-25T05:50:33;99026.25;;;4.39;100.00
11672;BME280;5892;43.412;24.612;2023-02-25T05:53:06;99048.84;;;4.48;100.00
11672;BME280;5892;43.412;24.612;2023-02-25T05:55:33;99043.91;;;4.78;100.00
11672;BME280;5892;43.412;24.612;2023-02-25T05:58:00;99008.38;;;4.65;100.00
11672;BME280;5892;43.412;24.612;2023-02-25T06:00:27;99036.44;;;5.10;100.00
11672;BME280;5892;43.412;24.612;2023-02-25T06:02:56;98953.88;;;4.76;100.00
11672;BME280;5892;43.412;24.612;2023-02-25T06:05:23;99028.63;;;5.31;100.00
11672;BME280;5892;43.412;24.612;2023-02-25T06:07:51;99041.13;;;5.54;100.00
11672;BME280;5892;43.412;24.612;2023-02-25T06:10:18;99043.78;;;5.68;100.00
11672;BME280;5892;43.412;24.612;2023-02-25T06:12:46;99031.59;;;5.66;100.00
11672;BME280;5892;43.412;24.612;2023-02-25T06:15:13;98981.34;;;5.32;100.00
11672;BME280;5892;43.412;24.612;2023-02-25T06:17:40;99025.59;;;5.91;100.00
11672;BME280;5892;43.412;24.612;2023-02-25T06:20:11;98984.59;;;5.87;100.00
11672;BME280;5892;43.412;24.612;2023-02-25T06:22:41;99031.44;;;6.37;100.00
11672;BME280;5892;43.412;24.612;2023-02-25T06:25:08;98998.00;;;6.46;100.00
11672;BME280;5892;43.412;24.612;2023-02-25T06:27:35;98966.81;;;6.52;100.00
11672;BME280;5892;43.412;24.612;2023-02-25T06:30:02;99016.72;;;6.95;100.00
11672;BME280;5892;43.412;24.612;2023-02-25T06:32:30;98947.94;;;6.64;100.00
11672;BME280;5892;43.412;24.612;2023-02-25T06:34:57;98949.56;;;6.82;100.00
11672;BME280;5892;43.412;24.612;2023-02-25T06:37:25;98995.75;;;7.21;100.00
11672;BME280;5892;43.412;24.612;2023-02-25T06:39:52;99012.75;;;7.53;100.00
11672;BME280;5892;43.412;24.612;2023-02-25T06:42:19;99028.59;;;7.68;100.00
11672;BME280;5892;43.412;24.612;2023-02-25T06:44:46;99027.63;;;7.73;100.00
11672;BME280;5892;43.412;24.612;2023-02-25T06:47:13;99002.94;;;7.60;100.00
11672;BME280;5892;43.412;24.612;2023-02-25T06:49:41;99030.22;;;7.69;100.00
11672;BME280;5892;43.412;24.612;2023-02-25T06:52:08;99014.91;;;7.85;100.00
11672;BME280;5892;43.412;24.612;2023-02-25T06:54:37;99001.00;;;7.78;100.00
11672;BME280;5892;43.412;24.612;2023-02-25T06:57:04;99008.19;;;7.91;100.00
11672;BME280;5892;43.412;24.612;2023-02-25T06:59:31;99008.50;;;7.98;100.00
11672;BME280;5892;43.412;24.612;2023-02-25T07:02:00;98993.22;;;8.06;100.00
11672;BME280;5892;43.412;24.612;2023-02-25T07:04:27;99003.56;;;8.38;100.00
11672;BME280;5892;43.412;24.612;2023-02-25T07:06:54;98995.00;;;8.48;100.00
11672;BME280;5892;43.412;24.612;2023-02-25T07:09:21;98987.06;;;8.64;100.00
11672;BME280;5892;43.412;24.612;2023-02-25T07:11:50;98989.78;;;8.93;100.00
11672;BME280;5892;43.412;24.612;2023-02-25T07:14:17;98988.47;;;9.20;99.02
11672;BME280;5892;43.412;24.612;2023-02-25T07:16:44;98966.75;;;9.24;98.00
11672;BME280;5892;43.412;24.612;2023-02-25T07:19:11;98985.75;;;9.74;96.75
11672;BME280;5892;43.412;24.612;2023-02-25T07:21:39;98990.50;;;9.98;94.92
11672;BME280;5892;43.412;24.612;2023-02-25T07:24:09;98952.47;;;9.84;92.97
11672;BME280;5892;43.412;24.612;2023-02-25T07:26:37;98974.63;;;10.24;93.02
11672;BME280;5892;43.412;24.612;2023-02-25T07:29:06;98984.19;;;10.42;92.99
11672;BME280;5892;43.412;24.612;2023-02-25T07:31:33;98983.41;;;10.42;92.57
11672;BME280;5892;43.412;24.612;2023-02-25T07:34:00;98983.97;;;10.47;92.62
11672;BME280;5892;43.412;24.612;2023-02-25T07:36:29;98967.22;;;10.49;92.24
11672;BME280;5892;43.412;24.612;2023-02-25T07:38:57;98983.28;;;10.87;90.46
11672;BME280;5892;43.412;24.612;2023-02-25T07:41:26;98979.78;;;11.26;90.47
11672;BME280;5892;43.412;24.612;2023-02-25T07:43:53;98981.88;;;11.85;89.48
11672;BME280;5892;43.412;24.612;2023-02-25T07:46:22;98906.81;;;11.77;87.26
11672;BME280;5892;43.412;24.612;2023-02-25T07:48:48;98923.09;;;12.17;84.98
11672;BME280;5892;43.412;24.612;2023-02-25T07:51:20;98906.09;;;11.96;83.63
11672;BME280;5892;43.412;24.612;2023-02-25T07:53:49;98975.63;;;12.63;84.16
11672;BME280;5892;43.412;24.612;2023-02-25T07:56:18;98945.00;;;12.29;84.46
11672;BME280;5892;43.412;24.612;2023-02-25T07:58:45;98974.94;;;12.66;84.82
11672;BME280;5892;43.412;24.612;2023-02-25T08:01:23;98968.75;;;12.88;83.96
11672;BME280;5892;43.412;24.612;2023-02-25T08:03:54;98953.00;;;12.69;84.22
11672;BME280;5892;43.412;24.612;2023-02-25T08:06:22;98885.34;;;12.14;84.73
11672;BME280;5892;43.412;24.612;2023-02-25T08:08:49;98901.59;;;12.35;84.88
11672;BME280;5892;43.412;24.612;2023-02-25T08:11:18;98978.09;;;12.68;85.47
11672;BME280;5892;43.412;24.612;2023-02-25T08:13:45;98957.78;;;12.72;84.82
11672;BME280;5892;43.412;24.612;2023-02-25T08:16:14;98957.13;;;12.60;85.24
11672;BME280;5892;43.412;24.612;2023-02-25T08:18:43;98957.41;;;12.39;85.72
11672;BME280;5892;43.412;24.612;2023-02-25T08:24:16;98824.88;;;11.95;84.63
11672;BME280;5892;43.412;24.612;2023-02-25T08:26:45;98928.31;;;12.54;84.71
11672;BME280;5892;43.412;24.612;2023-02-25T08:29:12;98951.31;;;12.81;83.96
11672;BME280;5892;43.412;24.612;2023-02-25T08:31:39;98936.81;;;12.49;85.09
11672;BME280;5892;43.412;24.612;2023-02-25T08:34:07;98958.69;;;12.77;84.71
11672;BME280;5892;43.412;24.612;2023-02-25T08:36:35;98921.88;;;12.81;83.81
11672;BME280;5892;43.412;24.612;2023-02-25T08:39:02;98947.94;;;12.87;84.74
11672;BME280;5892;43.412;24.612;2023-02-25T08:41:29;98941.22;;;12.69;84.63
11672;BME280;5892;43.412;24.612;2023-02-25T08:43:57;98944.56;;;12.78;85.45
11672;BME280;5892;43.412;24.612;2023-02-25T08:46:27;98832.50;;;12.17;85.50
11672;BME280;5892;43.412;24.612;2023-02-25T08:48:54;98909.97;;;12.77;85.03
11672;BME280;5892;43.412;24.612;2023-02-25T08:51:24;98929.56;;;12.91;84.17
11672;BME280;5892;43.412;24.612;2023-02-25T08:53:59;98917.47;;;13.11;84.13
11672;BME280;5892;43.412;24.612;2023-02-25T08:56:27;98850.69;;;12.95;79.94
11672;BME280;5892;43.412;24.612;2023-02-25T08:58:54;98905.28;;;13.51;75.44
11672;BME280;5892;43.412;24.612;2023-02-25T09:01:22;98895.72;;;13.64;74.52
11672;BME280;5892;43.412;24.612;2023-02-25T09:03:49;98813.88;;;13.19;73.88
11672;BME280;5892;43.412;24.612;2023-02-25T09:06:21;98894.56;;;13.65;72.97
11672;BME280;5892;43.412;24.612;2023-02-25T09:08:50;98831.81;;;13.32;73.98
11672;BME280;5892;43.412;24.612;2023-02-25T09:11:19;98781.53;;;12.93;74.13
11672;BME280;5892;43.412;24.612;2023-02-25T09:13:51;98879.09;;;13.80;74.59
11672;BME280;5892;43.412;24.612;2023-02-25T09:16:18;98884.22;;;14.04;74.03
11672;BME280;5892;43.412;24.612;2023-02-25T09:18:45;98877.28;;;14.14;72.57
11672;BME280;5892;43.412;24.612;2023-02-25T09:21:12;98837.50;;;13.85;72.56
11672;BME280;5892;43.412;24.612;2023-02-25T09:23:40;98785.94;;;13.59;72.45
11672;BME280;5892;43.412;24.612;2023-02-25T09:26:09;98861.22;;;14.16;70.18
11672;BME280;5892;43.412;24.612;2023-02-25T09:28:36;98865.78;;;14.31;68.96
11672;BME280;5892;43.412;24.612;2023-02-25T09:31:03;98796.97;;;13.85;69.16
11672;BME280;5892;43.412;24.612;2023-02-25T09:33:31;98781.44;;;13.96;68.16
11672;BME280;5892;43.412;24.612;2023-02-25T09:36:04;98824.59;;;14.15;65.33
11672;BME280;5892;43.412;24.612;2023-02-25T09:38:32;98857.72;;;14.71;62.16
11672;BME280;5892;43.412;24.612;2023-02-25T09:41:00;98842.88;;;14.79;61.19
11672;BME280;5892;43.412;24.612;2023-02-25T09:43:29;98836.28;;;14.88;61.01
11672;BME280;5892;43.412;24.612;2023-02-25T09:46:06;98788.53;;;14.80;61.75
11672;BME280;5892;43.412;24.612;2023-02-25T09:48:36;98827.78;;;15.00;62.44
11672;BME280;5892;43.412;24.612;2023-02-25T09:51:14;98766.81;;;14.45;62.22
11672;BME280;5892;43.412;24.612;2023-02-25T09:53:47;98828.84;;;14.92;62.35
11672;BME280;5892;43.412;24.612;2023-02-25T09:56:17;98835.13;;;14.89;61.21
11672;BME280;5892;43.412;24.612;2023-02-25T09:58:50;98778.38;;;14.54;62.11
11672;BME280;5892;43.412;24.612;2023-02-25T10:01:24;98765.38;;;14.55;61.40
11672;BME280;5892;43.412;24.612;2023-02-25T10:04:03;98836.97;;;15.11;61.43
11672;BME280;5892;43.412;24.612;2023-02-25T10:06:35;98800.50;;;14.91;60.91
11672;BME280;5892;43.412;24.612;2023-02-25T10:09:11;98817.47;;;15.30;60.54
11672;BME280;5892;43.412;24.612;2023-02-25T10:11:47;98808.06;;;15.35;61.88
11672;BME280;5892;43.412;24.612;2023-02-25T10:14:30;98738.47;;;14.78;62.73
11672;BME280;5892;43.412;24.612;2023-02-25T10:17:08;98797.38;;;15.30;62.86
11672;BME280;5892;43.412;24.612;2023-02-25T10:19:49;98722.31;;;14.76;62.49
11672;BME280;5892;43.412;24.612;2023-02-25T10:22:32;98712.03;;;15.10;62.50
11672;BME280;5892;43.412;24.612;2023-02-25T10:25:10;98776.69;;;15.94;61.16
11672;BME280;5892;43.412;24.612;2023-02-25T10:27:44;98703.19;;;15.79;60.28
11672;BME280;5892;43.412;24.612;2023-02-25T10:30:19;98729.31;;;15.92;60.59
11672;BME280;5892;43.412;24.612;2023-02-25T10:32:49;98682.19;;;15.67;60.16
11672;BME280;5892;43.412;24.612;2023-02-25T10:35:20;98702.47;;;15.41;60.92
11672;BME280;5892;43.412;24.612;2023-02-25T10:37:48;98738.69;;;15.36;62.07
11672;BME280;5892;43.412;24.612;2023-02-25T10:40:19;98744.47;;;15.20;62.88
11672;BME280;5892;43.412;24.612;2023-02-25T10:42:48;98761.91;;;15.28;63.21
11672;BME280;5892;43.412;24.612;2023-02-25T10:45:21;98682.81;;;14.65;63.33
11672;BME280;5892;43.412;24.612;2023-02-25T10:47:54;98667.34;;;14.57;63.47
11672;BME280;5892;43.412;24.612;2023-02-25T10:50:23;98746.75;;;15.15;63.07
11672;BME280;5892;43.412;24.612;2023-02-25T10:52:56;98662.72;;;14.65;63.28
11672;BME280;5892;43.412;24.612;2023-02-25T10:55:43;98742.16;;;15.26;64.02
11672;BME280;5892;43.412;24.612;2023-02-25T10:58:23;98756.41;;;15.32;64.11
11672;BME280;5892;43.412;24.612;2023-02-25T11:00:58;98735.56;;;15.38;62.89
11672;BME280;5892;43.412;24.612;2023-02-25T11:03:29;98742.34;;;15.47;62.82
11672;BME280;5892;43.412;24.612;2023-02-25T11:06:13;98730.22;;;15.55;62.75
11672;BME280;5892;43.412;24.612;2023-02-25T11:08:42;98667.91;;;15.10;61.77
11672;BME280;5892;43.412;24.612;2023-02-25T11:11:17;98725.13;;;15.61;61.57
11672;BME280;5892;43.412;24.612;2023-02-25T11:13:54;98715.13;;;15.49;62.75
11672;BME280;5892;43.412;24.612;2023-02-25T11:16:22;98703.50;;;15.66;62.24
11672;BME280;5892;43.412;24.612;2023-02-25T11:18:55;98707.91;;;15.78;61.80
11672;BME280;5892;43.412;24.612;2023-02-25T11:21:34;98651.91;;;15.30;62.21
11672;BME280;5892;43.412;24.612;2023-02-25T11:24:05;98653.78;;;15.19;61.98
11672;BME280;5892;43.412;24.612;2023-02-25T11:26:39;98710.41;;;15.46;62.19
11672;BME280;5892;43.412;24.612;2023-02-25T11:29:12;98635.03;;;14.91;62.21
11672;BME280;5892;43.412;24.612;2023-02-25T11:31:41;98712.09;;;15.54;62.35
11672;BME280;5892;43.412;24.612;2023-02-25T11:34:14;98639.84;;;15.01;61.97
11672;BME280;5892;43.412;24.612;2023-02-25T11:36:44;98692.41;;;15.59;61.60
11672;BME280;5892;43.412;24.612;2023-02-25T11:39:17;98700.81;;;15.81;60.78
11672;BME280;5892;43.412;24.612;2023-02-25T11:41:46;98695.06;;;16.07;60.09
11672;BME280;5892;43.412;24.612;2023-02-25T11:44:23;98701.44;;;16.15;58.99
11672;BME280;5892;43.412;24.612;2023-02-25T11:46:59;98701.47;;;16.18;59.30
11672;BME280;5892;43.412;24.612;2023-02-25T11:49:51;98688.09;;;16.27;58.84
11672;BME280;5892;43.412;24.612;2023-02-25T11:52:27;98680.88;;;16.08;58.35
11672;BME280;5892;43.412;24.612;2023-02-25T11:55:05;98661.91;;;16.03;58.85
11672;BME280;5892;43.412;24.612;2023-02-25T11:57:42;98630.53;;;15.67;59.82
11672;BME280;5892;43.412;24.612;2023-02-25T12:00:22;98642.34;;;15.64;61.47
11672;BME280;5892;43.412;24.612;2023-02-25T12:03:03;98618.88;;;15.44;62.54
11672;BME280;5892;43.412;24.612;2023-02-25T12:05:50;98648.38;;;15.84;61.69
11672;BME280;5892;43.412;24.612;2023-02-25T12:08:34;98688.44;;;16.19;62.08
11672;BME280;5892;43.412;24.612;2023-02-25T12:14:17;98674.22;;;16.17;62.64
11672;BME280;5892;43.412;24.612;2023-02-25T12:20:32;98692.00;;;16.19;61.03
11672;BME280;5892;43.412;24.612;2023-02-25T12:23:20;98684.97;;;16.32;61.16
11672;BME280;5892;43.412;24.612;2023-02-25T12:25:58;98588.75;;;15.73;61.66
11672;BME280;5892;43.412;24.612;2023-02-25T12:28:46;98665.94;;;16.20;61.96
11672;BME280;5892;43.412;24.612;2023-02-25T12:34:28;98705.13;;;16.43;61.43
11672;BME280;5892;43.412;24.612;2023-02-25T12:37:17;98698.41;;;16.37;61.49
11672;BME280;5892;43.412;24.612;2023-02-25T12:39:54;98672.69;;;16.26;60.78
11672;BME280;5892;43.412;24.612;2023-02-25T12:42:36;98600.66;;;15.87;59.99
11672;BME280;5892;43.412;24.612;2023-02-25T12:45:37;98696.59;;;16.73;59.10
11672;BME280;5892;43.412;24.612;2023-02-25T12:48:25;98691.09;;;16.84;57.19
11672;BME280;5892;43.412;24.612;2023-02-25T12:51:22;98657.06;;;16.66;57.56
11672;BME280;5892;43.412;24.612;2023-02-25T12:54:06;98686.78;;;16.93;57.81
11672;BME280;5892;43.412;24.612;2023-02-25T12:56:59;98683.97;;;16.86;57.98
11672;BME280;5892;43.412;24.612;2023-02-25T12:59:44;98669.34;;;16.79;59.17
11672;BME280;5892;43.412;24.612;2023-02-25T13:02:33;98672.06;;;16.61;59.66
11672;BME280;5892;43.412;24.612;2023-02-25T13:05:20;98619.38;;;16.29;60.56
11672;BME280;5892;43.412;24.612;2023-02-25T13:08:05;98670.81;;;16.55;61.78
11672;BME280;5892;43.412;24.612;2023-02-25T13:10:55;98662.47;;;16.37;62.69
11672;BME280;5892;43.412;24.612;2023-02-25T13:13:38;98659.25;;;16.28;63.13
11672;BME280;5892;43.412;24.612;2023-02-25T13:16:20;98658.47;;;16.24;63.61
11672;BME280;5892;43.412;24.612;2023-02-25T13:19:01;98552.00;;;15.58;63.63
11672;BME280;5892;43.412;24.612;2023-02-25T13:21:51;98634.72;;;16.09;63.00
11672;BME280;5892;43.412;24.612;2023-02-25T13:24:37;98671.09;;;16.22;62.52
11672;BME280;5892;43.412;24.612;2023-02-25T13:27:32;98660.69;;;15.94;62.04
11672;BME280;5892;43.412;24.612;2023-02-25T13:33:18;98642.19;;;16.08;62.15
11672;BME280;5892;43.412;24.612;2023-02-25T13:35:54;98657.28;;;16.25;61.93
11672;BME280;5892;43.412;24.612;2023-02-25T13:38:43;98648.16;;;16.14;62.16
11672;BME280;5892;43.412;24.612;2023-02-25T13:41:37;98633.63;;;16.35;61.46
11672;BME280;5892;43.412;24.612;2023-02-25T13:44:31;98578.13;;;15.82;61.56